Chapman, KS (67431)

2:10 PM CDT on October 01, 2016 (GMT -0500)
Indian Ridge | | Change Station

Elev 1227 ft 39.02 °N, 96.87 °W | Updated 0 second ago

Clear
Clear
76.3 °F
Feels Like 77 °F
N
0.0
Wind Variable Wind from SW

Today
High -- | Low -- °F
--% Chance of Precip.
Yesterday
High -- | Low -- °F
Precip. -- in
Pressure 30.07 in
Visibility 10.0 miles
Clouds Clear
Heat Index 77 °F
Dew Point 42 °F
Humidity 30%
Rainfall 0.00 in
Snow Depth Not available.
7:24 AM 7:09 PM
New Moon, 1% visible
METAR KFRI 011858Z AUTO 01001KT 10SM CLR 23/08 A3008 RMK AO2 SLP181 T02340084
Pressure 30.07 in
Visibility 10.0 miles
Clouds Clear
Heat Index 77 °F
Dew Point 42 °F
Humidity 30%
Rainfall 0.00 in
Snow Depth Not available.
7:24 AM 7:09 PM
New Moon, 1% visible
METAR KFRI 011858Z AUTO 01001KT 10SM CLR 23/08 A3008 RMK AO2 SLP181 T02340084

10-Day Weather Forecast

Almanac

Astronomy

Oct. 01, 2016 Rise Set
Actual Time
Civil Twilight
Nautical Twilight
Astronomical Twilight
Moon
Length of Visible Light
Length of Day
Tomorrow will be .
, % of the Moon is Illuminated

Today's Extremes

State Highs State Lows

Community

WunderPhotos

Upload Photos

1,942,995 photos uploaded!

WunderBlog® & News

Nearby

Air Quality

  Air Quality AQ Index Pollutant
Not available.

Snow Depth

Station Depth Elevation

Earthquake Activity

City Distance Mag. Time & Date
Minimum magnitude displayed is 2.5.

Coastal Water Temperatures

Place Temperature

Stations

Nearby Weather Stations

Station Location Temp. Windchill Dew Point Humidity Wind Precip. Elev Updated Type
                   

Watches & Warnings

There are currently no watches in effect.